Ormond Beach, FL

8:07 PM EDT on August 03, 2015 (GMT -0400)
Ormond Beach Fire Station 94 - West | | Change Station
CLOSE
Current Station
Personal Weather Station
Location: Ormond Beach, FL
Elevation: 25 ft
Nearby Weather Stations

Elev 25 ft 29.27 °N, 81.15 °W | Updated 2 seconds ago

Partly Cloudy
Partly Cloudy
79.3 °F
Feels Like 83 °F
N
3.0
Wind Variable Wind from SW
Gusts 14.0 mph

Today
High -- | Low -- °F
--% Chance of Precip.
Yesterday
High -- | Low -- °F
Precip. -- in
6:45 AM 8:15 PM
Waning Gibbous, 83% visible
Pressure 29.94 in
Visibility 10.0 miles
Clouds Few 2300 ft
Mostly Cloudy 7500 ft
Overcast 25000 ft
Heat Index 83 °F
Dew Point 74 °F
Humidity 84%
Rainfall 0.15 in
Snow Depth Not available.
UV 0 out of 12
Pollen 3.70 out of 12
Air Quality Not available.
Flu Activity Not available.
METAR KDAB 032353Z 21010KT 10SM FEW023 BKN075 OVC250 27/22 A2994 RMK AO2 SLP136 T02670222 10289 20261 53004

More Conditions Fewer Conditions

Pressure 29.94 in
Visibility 10.0 miles
Clouds Few 2300 ft
Mostly Cloudy 7500 ft
Overcast 25000 ft
Heat Index 83 °F
Dew Point 74 °F
Humidity 84%
Rainfall 0.15 in
Snow Depth Not available.
UV 0 out of 12
Pollen 3.70 out of 12
Air Quality Not available.
Flu Activity Not available.
METAR KDAB 032353Z 21010KT 10SM FEW023 BKN075 OVC250 27/22 A2994 RMK AO2 SLP136 T02670222 10289 20261 53004

More Conditions Fewer Conditions

Nowcast | as of 6:36 PM EDT on August 3, 2015

Through mid evening...showers and thunderstorms will produce moderate to heavy rain across North Lake and north Volusia counties...and along the Treasure Coast south of ft. Pierce. General rainall amounts will be between one quarter and one half inch with local amounts up to an inch. Additional details...including graphics are available online at: http://www.Srh.NOAA.Gov/mlb/blog.Php

×

10-Day Weather Forecast

×

Almanac

Astronomy

Aug. 03, 2015 Rise Set
Actual Time
Civil Twilight
Nautical Twilight
Astronomical Twilight
Moon
Length of Visible Light
Length of Day
Tomorrow will be .
, % of the Moon is Illuminated

Today's Extremes

State Highs State Lows

Community

WunderPhotos

Upload Photos

1,843,788 photos uploaded!

WunderBlogs® & News

Nearby

Air Quality

  Air Quality AQ Index Pollutant
Not available.

Snow Depth

Station Depth Elevation

Earthquake Activity

City Distance Mag. Time & Date
Minimum magnitude displayed is 2.5.

Coastal Water Temperatures

Place Temperature

Stations

Nearby Weather Stations

Station Location Temp. Windchill Dew Point Humidity Wind Precip. Elev Updated Type